createdAt,value
2023-01-15T00:01:51.562Z,4.37
2023-01-15T00:04:40.867Z,4.46
2023-01-15T00:07:30.561Z,4.48
2023-01-15T00:10:19.998Z,4.62
2023-01-15T00:13:09.259Z,4.55
2023-01-15T00:16:06.943Z,4.48
2023-01-15T00:18:59.098Z,4.48
2023-01-15T00:21:48.461Z,4.63
2023-01-15T00:24:55.006Z,4.62
2023-01-15T00:27:46.047Z,4.61
2023-01-15T00:30:43.007Z,4.57
2023-01-15T00:33:33.766Z,4.54
2023-01-15T00:36:23.038Z,4.64
2023-01-15T00:39:12.279Z,4.58
2023-01-15T00:42:02.207Z,4.71
2023-01-15T00:44:51.442Z,4.69
2023-01-15T00:47:42.381Z,4.67
2023-01-15T00:50:33.127Z,4.75
2023-01-15T00:53:22.665Z,4.76
2023-01-15T00:56:11.934Z,4.80
2023-01-15T00:59:04.019Z,4.75
2023-01-15T01:01:53.819Z,4.87
2023-01-15T01:04:43.183Z,4.87
2023-01-15T01:07:33.826Z,4.95
2023-01-15T01:10:23.026Z,5.02
2023-01-15T01:13:13.412Z,5.03
2023-01-15T01:16:02.770Z,5.08
2023-01-15T01:18:53.216Z,5.16
2023-01-15T01:21:45.105Z,5.13
2023-01-15T01:24:35.778Z,5.28
2023-01-15T01:27:25.022Z,5.25
2023-01-15T01:30:15.796Z,5.23
2023-01-15T01:33:05.272Z,5.23
2023-01-15T01:35:54.536Z,5.30
2023-01-15T01:38:43.753Z,5.21
2023-01-15T01:41:35.634Z,5.20
2023-01-15T01:45:02.794Z,5.36
2023-01-15T01:47:54.988Z,5.18
2023-01-15T01:50:45.135Z,5.30
2023-01-15T01:53:34.690Z,5.29
2023-01-15T01:56:25.187Z,5.30
2023-01-15T01:59:16.389Z,5.31
2023-01-15T02:02:06.298Z,5.39
2023-01-15T02:04:55.621Z,5.20
2023-01-15T02:07:44.888Z,5.27
2023-01-15T02:10:34.426Z,5.35
2023-01-15T02:13:35.014Z,5.38
2023-01-15T02:16:31.022Z,5.40
2023-01-15T02:19:36.146Z,5.35
2023-01-15T02:22:34.586Z,5.26
2023-01-15T02:25:35.178Z,5.46
2023-01-15T02:28:29.024Z,5.22
2023-01-15T02:31:26.449Z,5.39
2023-01-15T02:34:25.354Z,5.42
2023-01-15T02:37:21.601Z,5.43
2023-01-15T02:40:14.256Z,5.36
2023-01-15T02:43:05.349Z,5.38
2023-01-15T02:45:58.365Z,5.43
2023-01-15T02:48:54.089Z,5.55
2023-01-15T02:51:50.158Z,5.51
2023-01-15T02:54:48.197Z,5.44
2023-01-15T02:57:42.560Z,5.44
2023-01-15T03:00:36.402Z,5.60
2023-01-15T03:03:47.944Z,5.56
2023-01-15T03:06:45.049Z,5.61
2023-01-15T03:09:35.089Z,5.74
2023-01-15T03:12:30.234Z,5.69
2023-01-15T03:15:44.595Z,5.72
2023-01-15T03:18:43.700Z,5.75
2023-01-15T03:21:42.498Z,5.66
2023-01-15T03:24:40.644Z,5.76
2023-01-15T03:27:31.573Z,5.84
2023-01-15T03:30:23.420Z,5.83
2023-01-15T03:33:15.335Z,5.92
2023-01-15T03:36:07.308Z,5.94
2023-01-15T03:39:04.007Z,5.92
2023-01-15T03:42:28.072Z,5.73
2023-01-15T03:45:25.788Z,5.84
2023-01-15T03:48:22.035Z,5.79
2023-01-15T03:51:19.585Z,5.83
2023-01-15T03:54:16.971Z,5.72
2023-01-15T03:57:20.261Z,5.87
2023-01-15T04:00:16.752Z,5.90
2023-01-15T04:03:13.668Z,5.81
2023-01-15T04:06:04.811Z,5.99
2023-01-15T04:08:56.581Z,5.94
2023-01-15T04:11:47.194Z,6.04
2023-01-15T04:14:36.992Z,5.99
2023-01-15T04:17:30.624Z,5.99
2023-01-15T04:20:20.865Z,5.91
2023-01-15T04:23:11.405Z,5.92
2023-01-15T04:26:02.081Z,5.92
2023-01-15T04:28:51.550Z,6.01
2023-01-15T04:31:40.836Z,6.03
2023-01-15T04:34:30.835Z,5.96
2023-01-15T04:37:20.571Z,6.00
2023-01-15T04:40:31.551Z,6.03
2023-01-15T04:43:39.495Z,6.17
2023-01-15T04:46:28.751Z,6.14
2023-01-15T04:49:19.707Z,6.16
2023-01-15T04:52:09.704Z,6.16
2023-01-15T04:54:59.100Z,6.06
2023-01-15T04:57:51.291Z,5.96
2023-01-15T05:00:42.154Z,6.04
2023-01-15T05:03:32.465Z,5.99
2023-01-15T05:06:21.746Z,6.07
2023-01-15T05:09:11.014Z,6.07
2023-01-15T05:12:00.336Z,5.98
2023-01-15T05:14:49.829Z,6.08
2023-01-15T05:17:40.539Z,5.99
2023-01-15T05:20:29.830Z,6.06
2023-01-15T05:23:19.060Z,6.07
2023-01-15T05:26:08.326Z,6.07
2023-01-15T05:28:59.805Z,6.06
2023-01-15T05:31:49.019Z,6.03
2023-01-15T05:34:39.769Z,6.02
2023-01-15T05:37:31.436Z,5.92
2023-01-15T05:40:20.902Z,6.08
2023-01-15T05:43:10.073Z,6.01
2023-01-15T05:46:03.380Z,6.07
2023-01-15T05:48:52.724Z,6.00
2023-01-15T05:51:44.044Z,5.99
2023-01-15T05:54:36.212Z,6.08
2023-01-15T05:57:25.678Z,6.00
2023-01-15T06:00:16.729Z,6.01
2023-01-15T06:03:06.021Z,6.24
2023-01-15T06:05:56.066Z,6.28
2023-01-15T06:08:47.746Z,6.15
2023-01-15T06:11:36.987Z,6.23
2023-01-15T06:14:26.540Z,6.22
2023-01-15T06:17:15.892Z,6.27
2023-01-15T06:20:06.277Z,6.30
2023-01-15T06:22:55.557Z,6.24
2023-01-15T06:25:46.606Z,6.30
2023-01-15T06:28:36.055Z,6.23
2023-01-15T06:31:27.517Z,6.13
2023-01-15T06:34:16.900Z,6.29
2023-01-15T06:37:06.923Z,6.29
2023-01-15T06:39:56.194Z,6.23
2023-01-15T06:43:04.695Z,6.29
2023-01-15T06:46:20.658Z,6.31
2023-01-15T06:49:09.892Z,6.38
2023-01-15T06:51:59.206Z,6.37
2023-01-15T06:54:48.500Z,6.35
2023-01-15T06:57:40.897Z,6.18
2023-01-15T07:00:31.679Z,6.22
2023-01-15T07:03:20.968Z,6.22
2023-01-15T07:06:12.283Z,6.10
2023-01-15T07:09:01.788Z,6.04
2023-01-15T07:11:51.057Z,6.01
2023-01-15T07:14:40.337Z,6.09
2023-01-15T07:17:31.039Z,6.04
2023-01-15T07:20:21.759Z,5.99
2023-01-15T07:23:11.089Z,6.00
2023-01-15T07:26:00.328Z,6.05
2023-01-15T07:28:49.564Z,5.91
2023-01-15T07:31:38.948Z,5.96
2023-01-15T07:34:29.612Z,5.90
2023-01-15T07:37:18.855Z,5.91
2023-01-15T07:40:09.299Z,5.90
2023-01-15T07:43:15.823Z,5.93
2023-01-15T07:46:22.183Z,5.88
2023-01-15T07:49:29.853Z,5.79
2023-01-15T07:52:23.002Z,5.78
2023-01-15T07:55:13.752Z,5.82
2023-01-15T07:58:04.699Z,5.76
2023-01-15T08:00:54.704Z,5.77
2023-01-15T08:03:43.949Z,5.80
2023-01-15T08:06:33.150Z,5.84
2023-01-15T08:09:25.883Z,5.88
2023-01-15T08:12:32.247Z,5.95
2023-01-15T08:15:21.694Z,5.95
2023-01-15T08:18:11.060Z,5.92
2023-01-15T08:21:00.252Z,5.92
2023-01-15T08:23:51.089Z,5.96
2023-01-15T08:26:41.745Z,5.95
2023-01-15T08:29:31.094Z,6.00
2023-01-15T08:32:20.391Z,6.00
2023-01-15T08:35:10.689Z,6.01
2023-01-15T08:37:59.943Z,6.06
2023-01-15T08:41:00.791Z,6.03
2023-01-15T08:43:51.505Z,6.06
2023-01-15T08:46:40.781Z,6.04
2023-01-15T08:49:30.350Z,5.99
2023-01-15T08:52:19.589Z,6.07
2023-01-15T08:55:10.200Z,6.12
2023-01-15T08:57:59.397Z,6.15
2023-01-15T09:00:50.277Z,6.05
2023-01-15T09:03:39.720Z,6.10
2023-01-15T09:06:29.461Z,6.03
2023-01-15T09:09:19.016Z,6.16
2023-01-15T09:12:09.051Z,6.22
2023-01-15T09:15:02.790Z,6.22
2023-01-15T09:17:54.995Z,6.15
2023-01-15T09:20:44.227Z,6.17
2023-01-15T09:23:33.536Z,6.27
2023-01-15T09:26:30.222Z,6.27
2023-01-15T09:29:19.462Z,6.14
2023-01-15T09:32:10.465Z,6.26
2023-01-15T09:35:01.484Z,6.30
2023-01-15T09:37:54.036Z,6.28
2023-01-15T09:40:51.159Z,6.11
2023-01-15T09:43:54.348Z,6.30
2023-01-15T09:46:55.257Z,6.29
2023-01-15T09:50:16.357Z,6.27
2023-01-15T09:53:27.768Z,6.33
2023-01-15T09:56:23.622Z,6.44
2023-01-15T09:59:25.778Z,6.50
2023-01-15T10:02:26.956Z,6.41
2023-01-15T10:05:23.613Z,6.66
2023-01-15T10:08:21.362Z,6.60
2023-01-15T10:11:56.816Z,6.77
2023-01-15T10:14:55.662Z,6.85
2023-01-15T10:17:48.904Z,6.90
2023-01-15T10:21:09.208Z,6.92
2023-01-15T10:24:07.881Z,6.95
2023-01-15T10:26:59.331Z,6.90
2023-01-15T10:29:56.032Z,6.96
2023-01-15T10:33:01.562Z,7.00
2023-01-15T10:36:02.563Z,6.93
2023-01-15T10:39:01.206Z,7.08
2023-01-15T10:42:02.929Z,7.21
2023-01-15T10:45:02.776Z,7.20
2023-01-15T10:47:59.094Z,7.21
2023-01-15T10:50:50.014Z,7.22
2023-01-15T10:53:49.006Z,7.26
2023-01-15T10:56:44.959Z,7.20
2023-01-15T10:59:42.461Z,7.27
2023-01-15T11:02:39.542Z,7.23
2023-01-15T11:05:30.166Z,7.27
2023-01-15T11:09:06.481Z,7.23
2023-01-15T11:12:02.134Z,7.23
2023-01-15T11:15:09.254Z,7.29
2023-01-15T11:18:16.169Z,7.43
2023-01-15T11:21:11.758Z,7.43
2023-01-15T11:24:01.967Z,7.49
2023-01-15T11:26:54.882Z,7.65
2023-01-15T11:29:47.102Z,7.55
2023-01-15T11:32:38.885Z,7.53
2023-01-15T11:35:28.678Z,7.58
2023-01-15T11:38:17.967Z,7.60
2023-01-15T11:41:07.252Z,7.55
2023-01-15T11:44:17.049Z,7.55
2023-01-15T11:47:32.358Z,7.49
2023-01-15T11:50:39.311Z,7.49
2023-01-15T11:53:33.598Z,7.55
2023-01-15T11:56:27.284Z,7.63
2023-01-15T11:59:21.004Z,7.69
2023-01-15T12:02:23.497Z,7.67
2023-01-15T12:05:19.484Z,7.65
2023-01-15T12:08:25.507Z,7.47
2023-01-15T12:11:32.453Z,7.55
2023-01-15T12:15:10.876Z,7.58
2023-01-15T12:18:37.532Z,7.58
2023-01-15T12:22:14.306Z,7.66
2023-01-15T12:25:27.799Z,7.59
2023-01-15T12:28:24.624Z,7.55
2023-01-15T12:31:20.996Z,7.58
2023-01-15T12:34:20.719Z,7.39
2023-01-15T12:37:21.407Z,7.49
2023-01-15T12:40:23.327Z,7.38
2023-01-15T12:43:38.403Z,7.52
2023-01-15T12:46:31.757Z,7.54
2023-01-15T12:49:32.996Z,7.61
2023-01-15T12:52:28.207Z,7.64
2023-01-15T12:55:22.176Z,7.60
2023-01-15T12:58:22.718Z,7.75
2023-01-15T13:01:21.124Z,7.68
2023-01-15T13:04:21.353Z,7.72
2023-01-15T13:07:19.840Z,7.73
2023-01-15T13:10:18.190Z,7.83
2023-01-15T13:13:17.411Z,7.76
2023-01-15T13:16:19.472Z,7.81
2023-01-15T13:19:29.356Z,7.86
2023-01-15T13:22:26.250Z,7.78
2023-01-15T13:26:00.637Z,7.82
2023-01-15T13:29:06.971Z,7.78
2023-01-15T13:32:03.092Z,7.69
2023-01-15T13:34:59.151Z,7.69
2023-01-15T13:37:52.187Z,7.63
2023-01-15T13:40:44.225Z,7.32
2023-01-15T13:43:39.295Z,7.75
2023-01-15T13:46:28.549Z,7.61
2023-01-15T13:49:24.752Z,7.68
2023-01-15T13:52:26.155Z,7.72
2023-01-15T13:55:33.324Z,7.69
2023-01-15T13:58:27.095Z,7.81
2023-01-15T14:01:33.584Z,7.83
2023-01-15T14:04:37.629Z,7.91
2023-01-15T14:07:37.198Z,7.82
2023-01-15T14:10:44.062Z,7.86
2023-01-15T14:14:18.552Z,7.90
2023-01-15T14:17:29.187Z,7.89
2023-01-15T14:20:54.156Z,7.92
2023-01-15T14:24:29.018Z,7.94
2023-01-15T14:27:40.585Z,7.92
2023-01-15T14:31:05.350Z,7.94
2023-01-15T14:34:12.415Z,7.81
2023-01-15T14:37:05.184Z,7.76
2023-01-15T14:40:00.060Z,7.77
2023-01-15T14:43:07.118Z,7.72
2023-01-15T14:45:57.055Z,7.59
2023-01-15T14:48:46.674Z,7.58
2023-01-15T14:51:49.764Z,7.58
2023-01-15T14:54:40.683Z,7.60
2023-01-15T14:57:31.600Z,7.64
2023-01-15T15:00:23.495Z,7.60
2023-01-15T15:03:20.771Z,7.60
2023-01-15T15:06:15.104Z,7.60
2023-01-15T15:09:11.929Z,7.62
2023-01-15T15:12:21.579Z,7.53
2023-01-15T15:15:19.613Z,7.45
2023-01-15T15:18:21.294Z,7.45
2023-01-15T15:21:19.237Z,7.29
2023-01-15T15:24:16.857Z,7.33
2023-01-15T15:27:18.000Z,7.32
2023-01-15T15:30:14.254Z,7.22
2023-01-15T15:33:07.012Z,7.22
2023-01-15T15:35:59.622Z,7.18
2023-01-15T15:38:55.025Z,7.13
2023-01-15T15:42:06.098Z,7.15
2023-01-15T15:45:17.829Z,7.13
2023-01-15T15:48:36.484Z,7.11
2023-01-15T15:51:32.289Z,7.13
2023-01-15T15:54:23.452Z,7.17
2023-01-15T15:57:17.234Z,7.16
2023-01-15T16:00:17.754Z,7.14
2023-01-15T16:03:18.999Z,7.16
2023-01-15T16:06:20.374Z,7.11
2023-01-15T16:09:11.773Z,7.12
2023-01-15T16:12:07.427Z,7.02
2023-01-15T16:14:57.980Z,6.99
2023-01-15T16:17:50.175Z,6.89
2023-01-15T16:20:41.405Z,6.98
2023-01-15T16:23:32.775Z,7.07
2023-01-15T16:26:25.398Z,7.08
2023-01-15T16:29:23.681Z,7.08
2023-01-15T16:32:15.118Z,7.01
2023-01-15T16:35:16.026Z,7.05
2023-01-15T16:38:07.418Z,7.07
2023-01-15T16:40:58.141Z,7.06
2023-01-15T16:43:56.335Z,7.01
2023-01-15T16:46:59.025Z,7.00
2023-01-15T16:49:48.294Z,7.06
2023-01-15T16:52:52.982Z,6.89
2023-01-15T16:55:45.454Z,6.88
2023-01-15T16:58:39.410Z,6.86
2023-01-15T17:01:39.222Z,6.90
2023-01-15T17:04:31.706Z,6.87
2023-01-15T17:07:26.171Z,6.90
2023-01-15T17:10:23.377Z,6.86
2023-01-15T17:13:19.541Z,6.88
2023-01-15T17:16:19.246Z,6.83
2023-01-15T17:19:09.105Z,6.87
2023-01-15T17:21:58.311Z,6.77
2023-01-15T17:24:52.260Z,6.85
2023-01-15T17:27:41.498Z,6.83
2023-01-15T17:30:33.119Z,6.82
2023-01-15T17:33:23.818Z,6.91
2023-01-15T17:36:13.093Z,6.90
2023-01-15T17:39:02.393Z,6.89
2023-01-15T17:41:51.976Z,6.91
2023-01-15T17:44:41.237Z,6.94
2023-01-15T17:47:30.519Z,6.90
2023-01-15T17:50:21.573Z,6.94
2023-01-15T17:53:10.884Z,6.94
2023-01-15T17:56:18.029Z,6.95
2023-01-15T17:59:27.379Z,6.98
2023-01-15T18:02:34.931Z,6.86
2023-01-15T18:05:32.957Z,6.94
2023-01-15T18:08:22.235Z,6.90
2023-01-15T18:11:11.897Z,6.92
2023-01-15T18:14:01.270Z,6.91
2023-01-15T18:16:50.531Z,6.91
2023-01-15T18:19:39.774Z,6.88
2023-01-15T18:22:31.012Z,6.85
2023-01-15T18:25:20.356Z,6.83
2023-01-15T18:28:09.567Z,6.65
2023-01-15T18:30:58.820Z,6.69
2023-01-15T18:33:47.990Z,6.70
2023-01-15T18:36:37.303Z,6.67
2023-01-15T18:39:27.956Z,6.60
2023-01-15T18:42:34.241Z,6.55
2023-01-15T18:45:41.216Z,6.44
2023-01-15T18:48:30.435Z,6.49
2023-01-15T18:51:20.484Z,6.53
2023-01-15T18:54:10.356Z,6.52
2023-01-15T18:57:00.989Z,6.51
2023-01-15T18:59:50.643Z,6.55
2023-01-15T19:02:39.919Z,6.58
2023-01-15T19:05:29.121Z,6.63
2023-01-15T19:08:18.371Z,6.73
2023-01-15T19:11:13.412Z,6.77
2023-01-15T19:14:21.408Z,6.78
2023-01-15T19:17:32.305Z,6.81
2023-01-15T19:20:22.170Z,6.84
2023-01-15T19:23:11.596Z,6.87
2023-01-15T19:26:01.275Z,6.91
2023-01-15T19:28:50.647Z,6.94
2023-01-15T19:31:41.522Z,6.92
2023-01-15T19:34:34.138Z,6.91
2023-01-15T19:37:24.888Z,6.99
2023-01-15T19:40:17.380Z,6.92
2023-01-15T19:43:32.543Z,6.97
2023-01-15T19:46:39.113Z,6.96
2023-01-15T19:49:52.862Z,6.81
2023-01-15T19:52:42.173Z,6.83
2023-01-15T19:55:33.307Z,6.84
2023-01-15T19:58:22.685Z,6.84
2023-01-15T20:01:17.481Z,6.87
2023-01-15T20:04:07.079Z,6.88
2023-01-15T20:06:57.791Z,6.75
2023-01-15T20:09:47.401Z,6.77
2023-01-15T20:12:54.016Z,6.77
2023-01-15T20:15:46.548Z,6.71
2023-01-15T20:18:35.863Z,6.67
2023-01-15T20:21:25.085Z,6.75
2023-01-15T20:24:15.778Z,6.81
2023-01-15T20:27:05.279Z,6.75
2023-01-15T20:29:54.962Z,6.83
2023-01-15T20:32:47.275Z,6.82
2023-01-15T20:35:36.599Z,6.84
2023-01-15T20:38:25.809Z,6.83
2023-01-15T20:41:33.537Z,6.80
2023-01-15T20:44:40.137Z,6.82
2023-01-15T20:47:47.577Z,6.82
2023-01-15T20:50:38.980Z,6.70
2023-01-15T20:53:30.353Z,6.66
2023-01-15T20:56:21.451Z,6.76
2023-01-15T20:59:10.848Z,6.71
2023-01-15T21:02:00.207Z,6.67
2023-01-15T21:04:49.480Z,6.64
2023-01-15T21:07:39.365Z,6.58
2023-01-15T21:10:28.762Z,6.63
2023-01-15T21:13:23.677Z,6.55
2023-01-15T21:16:15.670Z,6.50
2023-01-15T21:19:05.219Z,6.60
2023-01-15T21:21:54.482Z,6.61
2023-01-15T21:24:44.195Z,6.66
2023-01-15T21:27:33.992Z,6.60
2023-01-15T21:30:25.884Z,6.65
2023-01-15T21:33:15.167Z,6.64
2023-01-15T21:36:08.060Z,6.66
2023-01-15T21:38:58.900Z,6.68
2023-01-15T21:42:06.507Z,6.65
2023-01-15T21:44:57.370Z,6.61
2023-01-15T21:47:47.951Z,6.71
2023-01-15T21:50:38.411Z,6.65
2023-01-15T21:53:28.060Z,6.64
2023-01-15T21:56:17.376Z,6.60
2023-01-15T21:59:06.798Z,6.59
2023-01-15T22:01:57.560Z,6.55
2023-01-15T22:04:48.697Z,6.41
2023-01-15T22:07:38.037Z,6.44
2023-01-15T22:10:27.351Z,6.41
2023-01-15T22:13:16.662Z,6.33
2023-01-15T22:16:06.663Z,6.17
2023-01-15T22:18:55.966Z,6.10
2023-01-15T22:21:46.754Z,6.03
2023-01-15T22:24:38.404Z,5.81
2023-01-15T22:27:29.526Z,5.83
2023-01-15T22:30:19.003Z,5.76
2023-01-15T22:33:08.184Z,5.67
2023-01-15T22:35:59.156Z,5.53
2023-01-15T22:38:54.019Z,5.53
2023-01-15T22:42:01.737Z,5.43
2023-01-15T22:44:51.690Z,5.32
2023-01-15T22:47:41.164Z,5.21
2023-01-15T22:50:30.402Z,5.25
2023-01-15T22:53:19.703Z,5.22
2023-01-15T22:56:10.445Z,5.03
2023-01-15T22:58:59.742Z,5.13
2023-01-15T23:01:49.190Z,5.01
2023-01-15T23:04:38.702Z,5.03
2023-01-15T23:07:28.034Z,4.93
2023-01-15T23:10:17.463Z,5.03
2023-01-15T23:13:08.129Z,5.01
2023-01-15T23:15:58.594Z,5.09
2023-01-15T23:18:48.187Z,5.09
2023-01-15T23:21:37.662Z,5.13
2023-01-15T23:24:26.898Z,5.14
2023-01-15T23:27:16.221Z,4.97
2023-01-15T23:30:08.588Z,4.98
2023-01-15T23:32:57.915Z,5.00
2023-01-15T23:35:47.364Z,5.08
2023-01-15T23:38:36.720Z,5.07
2023-01-15T23:41:40.937Z,5.13
2023-01-15T23:44:47.323Z,5.08
2023-01-15T23:47:38.017Z,5.09
2023-01-15T23:50:27.237Z,5.15
2023-01-15T23:53:16.506Z,5.12
2023-01-15T23:56:07.780Z,5.07
2023-01-15T23:58:57.834Z,5.20
